Time;durP1;ratioP1;P1;durP2;ratioP2;P2;SDS_P1;SDS_P2;PMS_P1;PMS_P2;Temp;Humidity;BMP_temperature;BMP_pressure;BME280_temperature;BME280_humidity;BME280_pressure;Samples;Min_cycle;Max_cycle;Signal;HPM_P1;HPM_P2
2023/07/14 00:00:20;;;;;;;6.75;2.30;;;17.60;99.90;;;;;;4993767;28;20034;-82
2023/07/14 00:02:47;;;;;;;5.43;2.60;;;17.60;99.90;;;;;;4993067;28;20117;-82
2023/07/14 00:05:29;;;;;;;4.35;2.58;;;17.60;99.90;;;;;;4992436;28;20042;-81
2023/07/14 00:07:56;;;;;;;6.50;2.33;;;17.60;99.90;;;;;;4992580;28;20041;-82
2023/07/14 00:10:26;;;;;;;5.28;2.70;;;17.60;99.90;;;;;;4994477;28;20764;-82
2023/07/14 00:12:52;;;;;;;6.15;2.67;;;17.60;99.90;;;;;;4996837;28;20022;-82
2023/07/14 00:15:20;;;;;;;3.75;2.55;;;17.50;99.90;;;;;;4995903;28;20070;-82
2023/07/14 00:17:48;;;;;;;4.35;2.97;;;17.50;99.90;;;;;;4996479;28;20081;-82
2023/07/14 00:20:24;;;;;;;5.20;2.70;;;17.50;99.90;;;;;;4997313;28;20029;-82
2023/07/14 00:22:51;;;;;;;3.08;2.58;;;17.50;99.90;;;;;;4995873;28;20044;-82
2023/07/14 00:25:16;;;;;;;4.72;2.40;;;17.50;99.90;;;;;;4994581;28;20045;-82
2023/07/14 00:27:42;;;;;;;5.35;2.70;;;17.50;99.90;;;;;;4994072;28;20026;-82
2023/07/14 00:30:20;;;;;;;4.30;2.30;;;17.50;99.90;;;;;;4995343;28;20326;-82
2023/07/14 00:32:48;;;;;;;5.18;2.50;;;17.40;99.90;;;;;;4997180;28;20108;-81
2023/07/14 00:35:25;;;;;;;3.90;2.88;;;17.40;99.90;;;;;;4995047;28;20026;-82
2023/07/14 00:37:52;;;;;;;6.82;2.72;;;17.40;99.90;;;;;;4993898;28;20030;-82
2023/07/14 00:40:30;;;;;;;6.85;2.65;;;17.30;99.90;;;;;;4996004;28;20038;-82
2023/07/14 00:42:57;;;;;;;3.97;2.58;;;17.30;99.90;;;;;;4995085;28;20034;-82
2023/07/14 00:45:27;;;;;;;5.97;2.50;;;17.20;99.90;;;;;;4994613;28;20701;-82
2023/07/14 00:47:57;;;;;;;5.60;2.83;;;17.20;99.90;;;;;;4994131;28;20126;-83
2023/07/14 00:50:29;;;;;;;7.45;3.10;;;17.20;99.90;;;;;;4994251;28;20046;-82
2023/07/14 00:52:58;;;;;;;4.57;2.50;;;17.10;99.90;;;;;;4994678;28;20084;-82
2023/07/14 00:55:24;;;;;;;5.00;2.70;;;17.10;99.90;;;;;;4993794;28;20762;-82
2023/07/14 00:57:53;;;;;;;3.42;2.67;;;17.10;99.90;;;;;;4994896;28;20033;-82
2023/07/14 01:00:30;;;;;;;4.90;2.95;;;17.00;99.90;;;;;;4993328;28;21572;-82
2023/07/14 01:02:57;;;;;;;6.07;2.88;;;17.00;99.90;;;;;;4994119;28;20046;-82
2023/07/14 01:05:24;;;;;;;5.30;3.05;;;17.00;99.90;;;;;;4993964;28;20054;-82
2023/07/14 01:07:50;;;;;;;6.35;2.70;;;16.90;99.90;;;;;;4994979;28;20029;-82
2023/07/14 01:10:28;;;;;;;5.10;2.70;;;16.80;99.90;;;;;;4996234;28;20048;-82
2023/07/14 01:13:04;;;;;;;5.38;2.80;;;16.80;99.90;;;;;;4994919;28;20793;-82
2023/07/14 01:15:29;;;;;;;7.50;2.97;;;16.80;99.90;;;;;;4994823;28;20068;-82
2023/07/14 01:17:56;;;;;;;4.20;2.78;;;16.70;99.90;;;;;;4993471;28;20034;-82
2023/07/14 01:20:21;;;;;;;4.00;2.92;;;16.60;99.90;;;;;;4994713;28;20072;-82
2023/07/14 01:22:52;;;;;;;4.45;2.83;;;16.50;99.90;;;;;;4994492;28;20070;-82
2023/07/14 01:25:38;;;;;;;5.88;2.40;;;16.50;99.90;;;;;;4993487;28;20065;-81
2023/07/14 01:28:09;;;;;;;4.78;3.00;;;16.40;99.90;;;;;;4995081;28;20022;-82
2023/07/14 01:30:36;;;;;;;5.32;3.20;;;16.40;99.90;;;;;;4995847;28;20859;-82
2023/07/14 01:33:02;;;;;;;4.22;2.75;;;16.40;99.90;;;;;;4994538;28;20029;-82
2023/07/14 01:35:34;;;;;;;3.97;2.72;;;16.40;99.90;;;;;;4994467;28;20034;-82
2023/07/14 01:38:00;;;;;;;4.55;2.83;;;16.30;99.90;;;;;;4994508;28;20085;-82
2023/07/14 01:40:27;;;;;;;7.47;3.05;;;16.30;99.90;;;;;;4993749;28;20070;-82
2023/07/14 01:42:56;;;;;;;4.78;2.90;;;16.30;99.90;;;;;;4994957;28;20027;-82
2023/07/14 01:45:23;;;;;;;4.40;2.97;;;16.20;99.90;;;;;;4993293;28;20026;-81
2023/07/14 01:47:55;;;;;;;3.70;2.60;;;16.20;99.90;;;;;;4993225;28;20054;-82
2023/07/14 01:50:30;;;;;;;5.80;3.00;;;16.20;99.90;;;;;;4993700;28;20042;-82
2023/07/14 01:53:01;;;;;;;4.70;2.88;;;16.10;99.90;;;;;;4995076;28;20033;-82
2023/07/14 01:55:32;;;;;;;7.55;3.15;;;16.10;99.90;;;;;;4993991;28;20519;-82
2023/07/14 01:58:02;;;;;;;4.78;2.72;;;16.00;99.90;;;;;;4994362;28;20034;-82
2023/07/14 02:00:28;;;;;;;4.65;2.83;;;16.00;99.90;;;;;;4995161;28;20068;-82
2023/07/14 02:02:54;;;;;;;8.07;2.85;;;16.00;99.90;;;;;;4992855;28;20030;-82
2023/07/14 02:05:30;;;;;;;4.45;3.08;;;15.90;99.90;;;;;;4995170;28;20042;-82
2023/07/14 02:08:02;;;;;;;4.75;2.88;;;15.90;99.90;;;;;;4993641;28;21392;-82
2023/07/14 02:10:28;;;;;;;4.28;2.70;;;15.90;99.90;;;;;;4993463;28;20053;-82
2023/07/14 02:12:54;;;;;;;5.78;3.20;;;15.80;99.90;;;;;;4994554;28;20090;-83
2023/07/14 02:15:25;;;;;;;6.15;3.00;;;15.80;99.90;;;;;;4994102;28;20041;-82
2023/07/14 02:17:52;;;;;;;6.75;3.63;;;15.80;99.90;;;;;;4993523;28;20057;-82
2023/07/14 02:20:47;;;;;;;4.70;3.20;;;15.70;99.90;;;;;;4994466;28;20065;-82
2023/07/14 02:23:19;;;;;;;5.05;2.72;;;15.70;99.90;;;;;;4991761;28;20050;-83
2023/07/14 02:25:49;;;;;;;4.75;3.10;;;15.60;99.90;;;;;;4992719;28;20041;-82
2023/07/14 02:28:15;;;;;;;6.53;3.53;;;15.60;99.90;;;;;;4993691;28;20066;-82
2023/07/14 02:30:47;;;;;;;4.93;3.22;;;15.60;99.90;;;;;;4994796;28;20057;-82
2023/07/14 02:33:23;;;;;;;9.90;3.05;;;15.50;99.90;;;;;;4993327;28;20042;-82
2023/07/14 02:35:58;;;;;;;5.57;2.85;;;15.50;99.90;;;;;;4992862;28;20406;-83
2023/07/14 02:38:24;;;;;;;9.55;3.55;;;15.50;99.90;;;;;;4993746;28;20034;-82
2023/07/14 02:41:00;;;;;;;5.53;3.00;;;15.50;99.90;;;;;;4993061;28;20034;-82
2023/07/14 02:43:26;;;;;;;7.45;3.47;;;15.50;99.90;;;;;;4992949;28;20140;-81
2023/07/14 02:46:03;;;;;;;6.15;2.85;;;15.50;99.90;;;;;;4991553;28;20102;-82
2023/07/14 02:48:39;;;;;;;5.72;3.53;;;15.50;99.90;;;;;;4993760;28;20066;-82
2023/07/14 02:51:04;;;;;;;7.43;2.65;;;15.50;99.90;;;;;;4992006;28;20110;-82
2023/07/14 02:53:30;;;;;;;3.95;2.67;;;15.40;99.90;;;;;;4992785;28;20042;-82
2023/07/14 02:55:55;;;;;;;5.18;2.83;;;15.40;99.90;;;;;;4990828;28;20247;-82
2023/07/14 02:58:21;;;;;;;4.38;2.83;;;15.40;99.90;;;;;;4990521;28;20073;-82
2023/07/14 03:00:47;;;;;;;4.78;2.80;;;15.40;99.90;;;;;;4992193;28;20030;-82
2023/07/14 03:03:13;;;;;;;5.20;2.70;;;15.40;99.90;;;;;;4991782;28;20026;-82
2023/07/14 03:05:38;;;;;;;7.70;2.85;;;15.40;99.90;;;;;;4992160;28;20045;-82
2023/07/14 03:08:07;;;;;;;7.82;3.83;;;15.40;99.90;;;;;;4991344;28;20080;-82
2023/07/14 03:10:33;;;;;;;3.53;2.70;;;15.40;99.90;;;;;;4990917;28;20041;-82
2023/07/14 03:12:59;;;;;;;5.47;2.67;;;15.40;99.90;;;;;;4991410;28;20026;-82
2023/07/14 03:15:24;;;;;;;5.93;3.03;;;15.40;99.90;;;;;;4988596;28;20404;-82
2023/07/14 03:17:51;;;;;;;4.20;2.80;;;15.40;99.90;;;;;;4988172;28;20041;-82
2023/07/14 03:20:17;;;;;;;5.88;3.03;;;15.40;99.90;;;;;;4988590;28;20507;-82
2023/07/14 03:22:43;;;;;;;3.70;2.85;;;15.40;99.90;;;;;;4988106;28;20034;-82
2023/07/14 03:25:09;;;;;;;4.57;2.78;;;15.40;99.90;;;;;;4987594;28;20157;-81
2023/07/14 03:27:34;;;;;;;4.97;2.65;;;15.30;99.90;;;;;;4990760;28;20022;-81
2023/07/14 03:30:00;;;;;;;5.40;3.00;;;15.30;99.90;;;;;;4990953;28;20035;-82
2023/07/14 03:32:25;;;;;;;10.15;2.90;;;15.30;99.90;;;;;;4990375;28;20515;-82
2023/07/14 03:34:51;;;;;;;5.07;2.83;;;15.30;99.90;;;;;;4991774;28;20030;-81
2023/07/14 03:37:17;;;;;;;6.15;2.50;;;15.30;99.90;;;;;;4991502;28;20038;-83
2023/07/14 03:39:42;;;;;;;6.82;3.05;;;15.30;99.90;;;;;;4991092;28;20112;-82
2023/07/14 03:42:08;;;;;;;5.60;3.00;;;15.30;99.90;;;;;;4991112;28;20033;-81
2023/07/14 03:44:34;;;;;;;5.50;2.88;;;15.30;99.90;;;;;;4991988;28;20137;-82
2023/07/14 03:47:02;;;;;;;3.83;2.40;;;15.30;99.90;;;;;;4991362;28;20136;-82
2023/07/14 03:49:28;;;;;;;6.68;3.03;;;15.30;99.90;;;;;;4992306;28;20034;-82
2023/07/14 03:51:53;;;;;;;6.72;3.00;;;15.30;99.90;;;;;;4991643;28;20041;-82
2023/07/14 03:54:19;;;;;;;4.82;2.80;;;15.30;99.90;;;;;;4992546;28;20030;-82
2023/07/14 03:56:44;;;;;;;5.13;2.72;;;15.30;99.90;;;;;;4990060;28;20035;-82
2023/07/14 03:59:11;;;;;;;4.35;2.90;;;15.30;99.90;;;;;;4991616;28;20035;-81
2023/07/14 04:01:36;;;;;;;6.53;2.80;;;15.30;99.90;;;;;;4992684;28;20489;-82
2023/07/14 04:04:02;;;;;;;7.13;2.78;;;15.30;99.90;;;;;;4992773;28;20042;-82
2023/07/14 04:06:28;;;;;;;5.53;3.17;;;15.30;99.90;;;;;;4990279;28;20037;-81
2023/07/14 04:08:57;;;;;;;3.58;2.65;;;15.30;99.90;;;;;;4989282;28;20709;-82
2023/07/14 04:11:22;;;;;;;6.18;2.78;;;15.30;99.90;;;;;;4988702;28;20069;-83
2023/07/14 04:13:48;;;;;;;4.30;2.60;;;15.40;99.90;;;;;;4990758;28;20030;-82
2023/07/14 04:16:13;;;;;;;6.05;2.35;;;15.40;99.90;;;;;;4991336;28;20030;-82
2023/07/14 04:18:39;;;;;;;6.43;2.80;;;15.40;99.90;;;;;;4991467;28;20049;-82
2023/07/14 04:21:08;;;;;;;6.10;2.67;;;15.50;99.90;;;;;;4990480;28;20105;-82
2023/07/14 04:23:34;;;;;;;8.07;3.03;;;15.50;99.90;;;;;;4989495;28;20031;-82
2023/07/14 04:26:01;;;;;;;11.02;2.97;;;15.50;99.90;;;;;;4991119;28;20500;-82
2023/07/14 04:28:26;;;;;;;12.43;3.42;;;15.50;99.90;;;;;;4992480;28;20034;-82
2023/07/14 04:30:53;;;;;;;8.20;3.30;;;15.50;99.90;;;;;;4991556;28;20049;-82
2023/07/14 04:33:21;;;;;;;7.25;2.95;;;15.60;99.90;;;;;;4989150;28;20192;-82
2023/07/14 04:35:51;;;;;;;6.00;3.13;;;15.60;99.90;;;;;;4986761;28;21509;-74
2023/07/14 04:38:17;;;;;;;5.97;3.00;;;15.60;99.90;;;;;;4985335;28;20443;-74
2023/07/14 04:40:43;;;;;;;8.57;3.03;;;15.60;99.90;;;;;;4984572;28;20031;-74
2023/07/14 04:43:08;;;;;;;6.78;2.75;;;15.60;99.90;;;;;;4984731;28;20038;-74
2023/07/14 04:45:37;;;;;;;5.70;2.63;;;15.60;99.90;;;;;;4985061;28;20034;-77
2023/07/14 04:48:08;;;;;;;6.95;2.88;;;15.70;99.90;;;;;;4985326;28;20034;-76
2023/07/14 04:50:34;;;;;;;8.10;2.53;;;15.70;99.90;;;;;;4984262;28;20038;-76
2023/07/14 04:53:00;;;;;;;4.53;2.47;;;15.80;99.90;;;;;;4985583;28;20026;-76
2023/07/14 04:55:27;;;;;;;5.22;2.35;;;15.80;99.90;;;;;;4985065;28;20788;-76
2023/07/14 04:57:52;;;;;;;4.55;2.55;;;15.90;99.90;;;;;;4987569;28;20119;-76
2023/07/14 05:00:18;;;;;;;4.75;2.42;;;16.00;99.90;;;;;;4986841;28;20141;-77
2023/07/14 05:02:44;;;;;;;5.45;3.05;;;16.00;99.90;;;;;;4987583;28;20113;-77
2023/07/14 05:05:23;;;;;;;4.32;2.53;;;16.10;99.90;;;;;;4987605;28;20030;-76
2023/07/14 05:07:48;;;;;;;9.30;3.00;;;16.20;99.90;;;;;;4988345;28;21090;-76
2023/07/14 05:10:16;;;;;;;8.20;3.45;;;16.20;99.90;;;;;;4988918;28;20026;-77
2023/07/14 05:12:41;;;;;;;6.30;2.85;;;16.30;99.90;;;;;;4977403;28;20038;-77
2023/07/14 05:15:10;;;;;;;9.75;3.00;;;16.30;99.90;;;;;;4976050;28;20093;-78
2023/07/14 05:17:38;;;;;;;5.25;2.60;;;16.40;99.90;;;;;;4977212;28;20042;-77
2023/07/14 05:20:06;;;;;;;8.55;2.80;;;16.40;99.90;;;;;;4977454;28;20173;-76
2023/07/14 05:22:32;;;;;;;7.40;2.90;;;16.50;99.90;;;;;;4982695;28;20045;-77
2023/07/14 05:24:58;;;;;;;3.55;2.53;;;16.50;99.90;;;;;;4981897;28;20098;-77
2023/07/14 05:27:24;;;;;;;5.50;2.85;;;16.60;99.90;;;;;;4983290;28;20033;-76
2023/07/14 05:29:50;;;;;;;5.68;2.60;;;16.60;99.90;;;;;;4984905;28;20477;-77
2023/07/14 05:32:16;;;;;;;6.43;2.30;;;16.70;99.90;;;;;;4985443;28;20045;-77
2023/07/14 05:34:42;;;;;;;5.85;2.53;;;16.80;99.90;;;;;;4985537;28;20053;-75
2023/07/14 05:37:08;;;;;;;4.60;2.53;;;16.80;99.90;;;;;;4984266;28;20034;-75
2023/07/14 05:39:34;;;;;;;6.78;2.30;;;17.00;99.90;;;;;;4985408;28;20042;-75
2023/07/14 05:42:03;;;;;;;4.22;2.40;;;17.10;99.90;;;;;;4984725;28;20039;-78
2023/07/14 05:44:29;;;;;;;4.38;2.50;;;17.20;99.90;;;;;;4985720;28;20519;-77
2023/07/14 05:46:55;;;;;;;5.75;2.60;;;17.30;99.90;;;;;;4985709;28;20493;-77
2023/07/14 05:49:20;;;;;;;7.78;2.17;;;17.40;99.90;;;;;;4984155;28;20041;-77
2023/07/14 05:51:46;;;;;;;6.53;2.20;;;17.50;99.90;;;;;;4985999;28;20129;-78
2023/07/14 05:54:12;;;;;;;3.33;2.63;;;17.70;99.90;;;;;;4984832;28;21375;-76
2023/07/14 05:56:37;;;;;;;5.57;2.58;;;17.70;99.90;;;;;;4983959;28;20620;-77
2023/07/14 05:59:03;;;;;;;5.25;2.25;;;17.80;99.90;;;;;;4984250;28;20042;-77
2023/07/14 06:01:28;;;;;;;6.88;2.42;;;17.90;99.90;;;;;;4987199;28;20080;-84
2023/07/14 06:03:54;;;;;;;4.80;2.42;;;18.00;99.90;;;;;;4985271;28;20031;-76
2023/07/14 06:06:19;;;;;;;4.93;2.60;;;18.20;99.90;;;;;;4983225;28;20046;-79
2023/07/14 06:08:45;;;;;;;7.68;2.30;;;18.30;99.90;;;;;;4986482;28;20788;-77
2023/07/14 06:11:11;;;;;;;4.32;2.17;;;18.40;99.90;;;;;;4987068;28;20030;-76
2023/07/14 06:13:37;;;;;;;5.63;2.00;;;18.60;99.90;;;;;;4989514;28;20038;-76
2023/07/14 06:16:03;;;;;;;4.63;2.10;;;18.70;99.90;;;;;;4986702;28;20027;-80
2023/07/14 06:18:28;;;;;;;3.53;1.90;;;18.80;99.90;;;;;;4985247;28;20026;-81
2023/07/14 06:20:54;;;;;;;5.82;2.00;;;18.90;99.90;;;;;;4987662;28;20041;-82
2023/07/14 06:23:19;;;;;;;3.78;2.30;;;19.10;99.90;;;;;;4989918;28;20038;-81
2023/07/14 06:25:45;;;;;;;4.68;2.15;;;19.20;99.90;;;;;;4987622;28;20137;-80
2023/07/14 06:28:11;;;;;;;4.47;2.10;;;19.30;99.90;;;;;;4988284;28;20031;-80
2023/07/14 06:30:37;;;;;;;6.60;2.45;;;19.30;99.90;;;;;;4989208;28;20096;-80
2023/07/14 06:33:03;;;;;;;4.53;1.95;;;19.40;99.90;;;;;;4988340;28;20026;-80
2023/07/14 06:35:28;;;;;;;3.95;2.22;;;19.50;99.90;;;;;;4988580;28;20097;-79
2023/07/14 06:37:57;;;;;;;4.53;2.28;;;19.70;99.90;;;;;;4987696;28;20101;-79
2023/07/14 06:40:24;;;;;;;4.90;2.17;;;19.80;99.90;;;;;;4988915;28;20026;-79
2023/07/14 06:42:49;;;;;;;4.65;1.92;;;19.80;99.90;;;;;;4987068;28;20120;-79
2023/07/14 06:45:15;;;;;;;5.75;2.30;;;19.90;99.90;;;;;;4984387;28;20464;-79
2023/07/14 06:47:41;;;;;;;6.43;2.45;;;20.00;99.90;;;;;;4985849;28;21638;-79
2023/07/14 06:50:07;;;;;;;3.05;2.00;;;20.10;99.90;;;;;;4986053;28;20045;-78
2023/07/14 06:52:36;;;;;;;6.10;2.20;;;20.20;99.90;;;;;;4986848;28;20030;-79
2023/07/14 06:55:02;;;;;;;6.18;2.30;;;20.20;99.90;;;;;;4985403;28;20035;-79
2023/07/14 06:57:27;;;;;;;7.38;2.50;;;20.30;99.90;;;;;;4985115;28;20041;-78
2023/07/14 06:59:53;;;;;;;7.40;2.30;;;20.30;99.90;;;;;;4985541;28;20033;-78
2023/07/14 07:02:18;;;;;;;3.92;1.98;;;20.40;99.90;;;;;;4979651;28;20065;-82
2023/07/14 07:04:44;;;;;;;5.10;2.50;;;20.40;99.90;;;;;;4980324;28;20030;-82
2023/07/14 07:07:10;;;;;;;4.57;2.30;;;20.50;99.90;;;;;;4985848;28;20026;-82
2023/07/14 07:09:35;;;;;;;8.23;2.10;;;20.50;99.90;;;;;;4986230;28;20034;-82
2023/07/14 07:12:03;;;;;;;4.50;2.40;;;20.50;99.90;;;;;;4985720;28;20046;-82
2023/07/14 07:14:28;;;;;;;8.40;2.30;;;20.50;99.90;;;;;;4985267;28;20560;-82
2023/07/14 07:16:54;;;;;;;5.03;2.38;;;20.50;99.90;;;;;;4985380;28;20030;-82
2023/07/14 07:19:20;;;;;;;3.15;2.03;;;20.60;99.90;;;;;;4988334;28;20033;-82
2023/07/14 07:21:45;;;;;;;4.63;2.20;;;20.70;99.90;;;;;;4988948;28;20116;-82
2023/07/14 07:24:11;;;;;;;3.17;1.85;;;20.80;99.90;;;;;;4989827;28;20168;-82
2023/07/14 07:26:37;;;;;;;3.63;1.80;;;20.80;99.90;;;;;;4989843;28;20497;-82
2023/07/14 07:29:03;;;;;;;4.38;2.00;;;20.90;99.90;;;;;;4991888;28;20048;-82
2023/07/14 07:31:28;;;;;;;3.10;2.00;;;21.00;99.90;;;;;;4989687;28;20038;-83
2023/07/14 07:33:54;;;;;;;3.15;1.90;;;21.10;99.90;;;;;;4989395;28;20026;-83
2023/07/14 07:36:22;;;;;;;2.67;1.77;;;21.20;99.90;;;;;;4989561;28;20069;-83
2023/07/14 07:38:50;;;;;;;3.33;1.90;;;21.20;99.90;;;;;;4990569;28;20149;-82
2023/07/14 07:41:18;;;;;;;6.38;2.08;;;21.30;99.90;;;;;;4989326;28;20088;-83
2023/07/14 07:43:44;;;;;;;3.13;1.65;;;21.50;99.90;;;;;;4990259;28;20117;-83
2023/07/14 07:46:10;;;;;;;4.40;1.83;;;21.50;99.90;;;;;;4988690;28;20134;-82
2023/07/14 07:48:36;;;;;;;4.78;2.10;;;21.60;99.90;;;;;;4988961;28;20049;-82
2023/07/14 07:51:04;;;;;;;5.38;1.90;;;21.70;99.90;;;;;;4989810;28;20042;-82
2023/07/14 07:53:29;;;;;;;2.95;1.60;;;21.80;99.90;;;;;;4989657;28;20113;-82
2023/07/14 07:55:57;;;;;;;3.33;1.85;;;21.80;99.90;;;;;;4988147;28;20121;-82
2023/07/14 07:58:24;;;;;;;3.13;1.95;;;21.90;99.90;;;;;;4990640;28;20038;-82
2023/07/14 08:00:52;;;;;;;3.80;2.00;;;21.90;99.90;;;;;;4989416;28;20034;-82
2023/07/14 08:03:17;;;;;;;5.45;1.60;;;22.00;99.90;;;;;;4989015;28;20036;-82
2023/07/14 08:05:43;;;;;;;2.67;2.08;;;22.10;99.90;;;;;;4990696;28;20026;-82
2023/07/14 08:08:08;;;;;;;4.90;2.03;;;22.10;99.90;;;;;;4991657;28;20105;-82
2023/07/14 08:10:42;;;;;;;3.00;1.95;;;22.10;99.90;;;;;;4990291;28;20122;-82
2023/07/14 08:13:12;;;;;;;3.67;1.85;;;22.20;99.90;;;;;;4989828;28;20053;-82
2023/07/14 08:15:38;;;;;;;12.02;3.15;;;22.30;99.90;;;;;;4988462;28;20038;-82
2023/07/14 08:18:06;;;;;;;5.72;2.05;;;22.40;99.90;;;;;;4989220;28;20040;-82
2023/07/14 08:20:32;;;;;;;3.85;1.88;;;22.40;99.90;;;;;;4989162;28;20101;-82
2023/07/14 08:23:00;;;;;;;4.68;1.83;;;22.60;99.90;;;;;;4989570;28;20046;-82
2023/07/14 08:25:26;;;;;;;6.47;2.10;;;22.70;99.90;;;;;;4988562;28;20472;-82
2023/07/14 08:27:51;;;;;;;5.00;2.05;;;22.80;99.90;;;;;;4989554;28;20090;-82
2023/07/14 08:30:18;;;;;;;4.25;2.20;;;23.00;99.90;;;;;;4989210;28;20030;-82
2023/07/14 08:32:43;;;;;;;4.75;2.10;;;22.90;99.90;;;;;;4991325;28;20030;-82
2023/07/14 08:35:09;;;;;;;5.20;2.28;;;22.90;99.90;;;;;;4992915;28;20061;-82
2023/07/14 08:37:35;;;;;;;4.38;2.03;;;23.00;99.90;;;;;;4991147;28;20045;-82
2023/07/14 08:40:00;;;;;;;5.60;2.00;;;23.00;99.90;;;;;;4992488;28;20027;-82
2023/07/14 08:42:31;;;;;;;5.07;2.33;;;23.10;99.90;;;;;;4992194;28;20197;-82
2023/07/14 08:45:07;;;;;;;4.28;2.65;;;23.10;99.90;;;;;;4993976;28;20696;-82
2023/07/14 08:47:49;;;;;;;3.50;1.88;;;23.20;99.90;;;;;;4993003;28;20772;-81
2023/07/14 08:50:28;;;;;;;4.78;2.10;;;23.30;99.90;;;;;;4991913;28;20109;-82
2023/07/14 08:53:02;;;;;;;7.18;2.20;;;23.50;99.90;;;;;;4993143;28;20034;-82
2023/07/14 08:55:30;;;;;;;7.45;3.17;;;23.60;99.90;;;;;;4991529;28;20058;-82
2023/07/14 08:58:27;;;;;;;5.65;1.90;;;23.60;99.90;;;;;;4991328;28;20117;-82
2023/07/14 09:00:53;;;;;;;3.20;1.80;;;23.70;99.90;;;;;;4990798;28;20046;-82
2023/07/14 09:03:37;;;;;;;4.00;2.22;;;23.80;99.90;;;;;;4993506;28;20089;-82
2023/07/14 09:06:20;;;;;;;2.37;1.60;;;23.90;99.90;;;;;;4993556;28;20066;-83
2023/07/14 09:08:46;;;;;;;4.05;2.20;;;23.90;99.90;;;;;;4992755;28;20042;-82
2023/07/14 09:11:44;;;;;;;5.05;1.92;;;24.00;99.90;;;;;;4993987;28;20403;-83
2023/07/14 09:14:36;;;;;;;6.03;2.42;;;24.10;99.90;;;;;;4991991;28;20026;-83
2023/07/14 09:17:22;;;;;;;8.18;2.08;;;24.30;99.90;;;;;;4991390;28;20026;-83
2023/07/14 09:20:26;;;;;;;2.75;1.60;;;24.40;99.90;;;;;;4991888;28;20028;-82
2023/07/14 09:23:23;;;;;;;4.88;1.70;;;24.40;99.90;;;;;;4986898;28;20050;-82
2023/07/14 09:26:08;;;;;;;6.00;1.98;;;24.60;99.90;;;;;;4990617;28;20038;-82
2023/07/14 09:28:41;;;;;;;6.25;2.25;;;24.70;99.90;;;;;;4989598;28;21579;-82
2023/07/14 09:31:16;;;;;;;5.07;2.10;;;24.80;99.90;;;;;;4991859;28;20030;-83
2023/07/14 09:33:55;;;;;;;3.10;1.92;;;25.00;99.90;;;;;;4993065;28;20030;-82
2023/07/14 09:36:21;;;;;;;3.92;1.77;;;25.10;99.90;;;;;;4989211;28;20039;-82
2023/07/14 09:38:53;;;;;;;5.20;2.10;;;25.20;99.90;;;;;;4990335;28;20036;-83
2023/07/14 09:41:24;;;;;;;6.47;2.20;;;25.30;99.90;;;;;;4988017;28;20477;-82
2023/07/14 09:43:49;;;;;;;4.93;1.90;;;25.50;99.90;;;;;;4991079;28;20733;-82
2023/07/14 09:46:18;;;;;;;3.97;2.20;;;25.50;99.90;;;;;;4989586;28;20104;-82
2023/07/14 09:49:03;;;;;;;6.35;2.00;;;25.70;99.90;;;;;;4989852;28;20108;-82
2023/07/14 09:51:29;;;;;;;5.10;2.05;;;25.80;99.90;;;;;;4991123;28;20451;-83
2023/07/14 09:54:00;;;;;;;5.53;2.10;;;26.00;99.90;;;;;;4991754;28;20026;-82
2023/07/14 09:56:36;;;;;;;4.07;2.00;;;26.20;99.90;;;;;;4988979;28;20053;-82
2023/07/14 09:59:04;;;;;;;6.38;2.25;;;26.50;99.90;;;;;;4991544;28;20057;-83
2023/07/14 10:01:31;;;;;;;5.05;1.83;;;26.60;99.90;;;;;;4989912;28;20030;-83
2023/07/14 10:04:07;;;;;;;4.60;1.88;;;26.80;99.90;;;;;;4991376;28;20038;-82
2023/07/14 10:06:33;;;;;;;4.78;1.77;;;26.90;99.90;;;;;;4990431;28;20788;-83
2023/07/14 10:09:11;;;;;;;4.07;1.52;;;27.20;99.90;;;;;;4991337;28;20038;-83
2023/07/14 10:11:45;;;;;;;5.63;2.25;;;27.40;99.90;;;;;;4992085;28;20046;-83
2023/07/14 10:14:27;;;;;;;4.53;1.90;;;27.50;99.90;;;;;;4988064;28;20027;-82
2023/07/14 10:16:56;;;;;;;3.42;2.03;;;27.80;99.90;;;;;;4989515;28;20030;-82
2023/07/14 10:19:31;;;;;;;4.22;1.80;;;27.80;99.90;;;;;;4990010;28;20165;-82
2023/07/14 10:22:04;;;;;;;4.28;1.77;;;27.90;99.90;;;;;;4990785;28;20044;-83
2023/07/14 10:24:31;;;;;;;2.88;1.63;;;28.00;99.90;;;;;;4989031;28;20453;-82
2023/07/14 10:27:00;;;;;;;6.05;2.10;;;28.00;99.90;;;;;;4989558;28;21040;-83
2023/07/14 10:29:41;;;;;;;7.45;1.60;;;28.10;99.90;;;;;;4990676;28;20022;-82
2023/07/14 10:32:18;;;;;;;7.00;1.70;;;28.30;99.90;;;;;;4991470;28;20031;-82
2023/07/14 10:34:51;;;;;;;2.83;1.50;;;28.40;99.90;;;;;;4988848;28;20519;-82
2023/07/14 10:37:29;;;;;;;4.03;1.65;;;28.40;99.90;;;;;;4989565;28;20030;-82
2023/07/14 10:40:04;;;;;;;5.20;1.73;;;28.30;99.90;;;;;;4990232;28;20527;-82
2023/07/14 10:42:35;;;;;;;4.32;1.65;;;28.40;99.90;;;;;;4987898;28;20046;-83
2023/07/14 10:45:02;;;;;;;4.15;1.70;;;28.30;99.90;;;;;;4989115;28;20043;-82
2023/07/14 10:47:36;;;;;;;3.90;1.60;;;28.20;99.90;;;;;;4989151;28;20039;-82
2023/07/14 10:50:08;;;;;;;4.85;1.55;;;28.20;99.90;;;;;;4988869;28;20785;-82
2023/07/14 10:52:42;;;;;;;2.47;1.42;;;28.40;99.90;;;;;;4986419;28;20038;-82
2023/07/14 10:55:21;;;;;;;3.50;1.90;;;28.30;99.90;;;;;;4987662;28;20112;-83
2023/07/14 10:57:56;;;;;;;2.33;1.52;;;28.30;99.90;;;;;;4985381;28;20045;-82
2023/07/14 11:00:28;;;;;;;3.33;1.75;;;28.20;99.90;;;;;;4985909;28;20030;-82
2023/07/14 11:03:26;;;;;;;2.92;1.65;;;28.20;99.90;;;;;;4985214;28;20396;-82
2023/07/14 11:06:23;;;;;;;6.53;1.60;;;28.20;99.90;;;;;;4986741;28;20665;-83
2023/07/14 11:08:53;;;;;;;3.40;1.60;;;28.40;99.90;;;;;;4993894;28;20041;-82
2023/07/14 11:11:22;;;;;;;3.42;1.60;;;28.30;99.90;;;;;;4991037;28;20093;-82
2023/07/14 11:14:15;;;;;;;3.53;1.70;;;28.20;99.40;;;;;;4988830;28;20031;-82
2023/07/14 11:16:44;;;;;;;2.33;1.58;;;28.30;99.90;;;;;;4988605;28;20034;-82
2023/07/14 11:19:28;;;;;;;4.07;1.50;;;28.60;99.90;;;;;;4988129;28;21319;-82
2023/07/14 11:22:00;;;;;;;2.73;1.60;;;29.00;99.90;;;;;;4991840;28;20030;-82
2023/07/14 11:24:52;;;;;;;4.00;1.63;;;29.10;98.90;;;;;;4990449;28;20629;-82
2023/07/14 11:27:33;;;;;;;3.35;1.63;;;29.20;99.10;;;;;;4979608;28;20702;-83
2023/07/14 11:30:03;;;;;;;5.45;1.60;;;29.30;97.50;;;;;;4987267;28;20040;-83
2023/07/14 11:32:46;;;;;;;5.05;1.55;;;29.60;99.00;;;;;;4988551;28;20133;-82
2023/07/14 11:35:39;;;;;;;2.75;1.50;;;29.60;98.50;;;;;;4988946;28;20069;-83
2023/07/14 11:38:30;;;;;;;2.80;1.50;;;29.60;98.30;;;;;;4989262;28;20038;-83
2023/07/14 11:40:56;;;;;;;4.82;1.67;;;29.70;97.30;;;;;;4988849;28;20030;-82
2023/07/14 11:43:25;;;;;;;6.47;1.90;;;30.10;98.10;;;;;;4989391;28;20034;-82
2023/07/14 11:46:14;;;;;;;6.55;2.45;;;30.20;98.10;;;;;;4987946;28;20026;-82
2023/07/14 11:49:03;;;;;;;4.55;1.67;;;30.30;95.00;;;;;;4987742;28;20037;-82
2023/07/14 11:51:55;;;;;;;4.57;1.55;;;30.20;95.10;;;;;;5005082;28;20073;-82
2023/07/14 11:54:40;;;;;;;2.15;1.33;;;30.10;95.50;;;;;;4989978;28;20184;-83
2023/07/14 11:57:14;;;;;;;2.10;1.45;;;30.00;96.10;;;;;;4985979;28;20045;-82
2023/07/14 11:59:51;;;;;;;3.63;2.50;;;29.80;95.40;;;;;;4988828;28;20089;-81
2023/07/14 12:02:35;;;;;;;4.57;1.73;;;29.70;94.40;;;;;;4988395;28;20041;-82
2023/07/14 12:05:14;;;;;;;2.42;1.70;;;29.50;93.90;;;;;;4985190;28;20034;-82
2023/07/14 12:08:04;;;;;;;1.73;1.30;;;29.30;94.30;;;;;;4984470;28;20041;-82
2023/07/14 12:10:39;;;;;;;3.15;1.75;;;29.10;94.10;;;;;;4987380;28;20061;-83
2023/07/14 12:13:22;;;;;;;3.58;1.60;;;29.00;97.40;;;;;;4985236;28;20068;-82
2023/07/14 12:15:55;;;;;;;3.65;1.48;;;28.80;95.30;;;;;;4986958;28;20045;-82
2023/07/14 12:18:34;;;;;;;2.30;1.60;;;28.90;95.20;;;;;;4985805;28;20096;-82
2023/07/14 12:21:18;;;;;;;4.28;1.55;;;28.70;94.60;;;;;;4986278;28;20797;-82
2023/07/14 12:23:53;;;;;;;4.77;1.80;;;28.60;94.50;;;;;;4986605;28;20035;-82
2023/07/14 12:26:33;;;;;;;4.63;1.80;;;28.60;94.50;;;;;;4983487;28;20060;-82
2023/07/14 12:29:12;;;;;;;5.68;1.88;;;28.80;95.00;;;;;;4987497;28;20037;-82
2023/07/14 12:31:39;;;;;;;3.15;1.52;;;28.90;94.60;;;;;;4987725;28;20037;-82
2023/07/14 12:34:05;;;;;;;2.53;1.55;;;29.20;95.70;;;;;;4987532;28;20034;-82
2023/07/14 12:36:31;;;;;;;3.85;1.40;;;29.10;93.20;;;;;;4983906;28;20041;-83
2023/07/14 12:38:59;;;;;;;3.03;1.60;;;29.10;95.10;;;;;;4987414;28;20064;-82
2023/07/14 12:41:33;;;;;;;3.72;1.50;;;29.00;95.30;;;;;;4986704;28;20680;-82
2023/07/14 12:44:00;;;;;;;2.47;1.75;;;29.00;94.50;;;;;;4985631;28;20050;-82
2023/07/14 12:46:35;;;;;;;2.92;1.70;;;29.20;94.50;;;;;;4985509;28;20043;-82
2023/07/14 12:49:02;;;;;;;5.80;1.33;;;29.30;96.50;;;;;;4985881;28;20064;-82
2023/07/14 12:51:30;;;;;;;2.80;1.40;;;29.40;93.60;;;;;;4983467;28;20496;-82
2023/07/14 12:54:04;;;;;;;2.92;1.60;;;29.40;93.80;;;;;;4988374;28;20034;-82
2023/07/14 12:56:32;;;;;;;1.63;1.30;;;29.20;93.50;;;;;;4986475;28;21515;-82
2023/07/14 12:59:06;;;;;;;3.65;2.08;;;29.30;94.80;;;;;;4987070;28;20039;-82
2023/07/14 13:01:33;;;;;;;3.33;1.75;;;29.50;93.60;;;;;;4985744;28;20803;-82